Time;durP1;ratioP1;P1;durP2;ratioP2;P2;SDS_P1;SDS_P2;PMS_P1;PMS_P2;Temp;Humidity;BMP_temperature;BMP_pressure;BME280_temperature;BME280_humidity;BME280_pressure;Samples;Min_cycle;Max_cycle;Signal;HPM_P1;HPM_P2
2022/11/07 00:00:35;;;;;;;2.10;1.10;;;11.50;99.90;;;;;;4884015;29;20048;-78
2022/11/07 00:03:02;;;;;;;2.30;0.95;;;11.50;99.90;;;;;;4884833;29;20059;-78
2022/11/07 00:05:28;;;;;;;1.45;0.93;;;11.50;99.90;;;;;;4885746;29;20060;-77
2022/11/07 00:07:55;;;;;;;2.75;1.10;;;11.60;99.90;;;;;;4886368;29;20056;-78
2022/11/07 00:10:22;;;;;;;2.97;0.88;;;11.60;99.90;;;;;;4886490;29;20086;-77
2022/11/07 00:12:49;;;;;;;2.85;0.80;;;11.60;99.90;;;;;;4893214;29;20065;-78
2022/11/07 00:15:15;;;;;;;1.92;0.60;;;11.60;99.90;;;;;;4892726;29;20069;-77
2022/11/07 00:17:42;;;;;;;1.42;0.60;;;11.70;99.90;;;;;;4895276;29;20125;-77
2022/11/07 00:20:09;;;;;;;1.30;0.90;;;11.70;99.90;;;;;;4886850;29;20049;-77
2022/11/07 00:22:36;;;;;;;0.73;0.60;;;11.70;99.90;;;;;;4886490;29;20053;-76
2022/11/07 00:25:03;;;;;;;6.28;0.93;;;11.70;99.90;;;;;;4887220;29;20128;-78
2022/11/07 00:27:29;;;;;;;1.60;0.88;;;11.80;99.90;;;;;;4887728;29;20053;-78
2022/11/07 00:29:56;;;;;;;1.20;0.63;;;11.80;99.90;;;;;;4885956;29;20088;-77
2022/11/07 00:32:22;;;;;;;1.33;0.80;;;11.80;99.90;;;;;;4891669;29;20052;-78
2022/11/07 00:34:49;;;;;;;2.92;0.90;;;11.80;99.90;;;;;;4883955;29;20049;-78
2022/11/07 00:37:16;;;;;;;2.40;0.82;;;11.80;99.90;;;;;;4883424;29;20052;-77
2022/11/07 00:39:42;;;;;;;0.77;0.77;;;11.80;99.90;;;;;;4895782;29;20053;-78
2022/11/07 00:42:09;;;;;;;1.08;0.70;;;11.80;99.90;;;;;;4894058;29;20060;-79
2022/11/07 00:44:36;;;;;;;1.65;0.77;;;11.80;99.90;;;;;;4896941;29;20053;-80
2022/11/07 00:47:02;;;;;;;1.38;0.80;;;11.80;99.90;;;;;;4896530;29;20048;-78
2022/11/07 00:49:29;;;;;;;1.38;0.82;;;11.80;99.90;;;;;;4895732;29;20645;-78
2022/11/07 00:51:56;;;;;;;1.90;0.90;;;11.80;99.90;;;;;;4896329;29;20059;-78
2022/11/07 00:54:23;;;;;;;2.75;0.88;;;11.90;99.90;;;;;;4897424;29;20056;-78
2022/11/07 00:56:49;;;;;;;1.75;0.68;;;11.90;99.90;;;;;;4897445;29;20128;-77
2022/11/07 00:59:16;;;;;;;1.67;0.88;;;11.90;99.90;;;;;;4890784;29;20057;-77
2022/11/07 01:01:43;;;;;;;3.30;1.02;;;11.90;99.90;;;;;;4881580;29;20053;-77
2022/11/07 01:06:58;;;;;;;2.53;0.70;;;11.90;99.90;;;;;;4884260;29;20063;-77
2022/11/07 01:09:25;;;;;;;2.35;1.00;;;11.90;99.90;;;;;;4883277;29;20060;-80
2022/11/07 01:11:52;;;;;;;2.38;1.00;;;11.90;99.90;;;;;;4885371;29;20057;-77
2022/11/07 01:14:20;;;;;;;3.22;0.95;;;11.90;99.90;;;;;;4887186;29;20105;-79
2022/11/07 01:16:47;;;;;;;1.65;0.90;;;11.90;99.90;;;;;;4886485;29;20045;-78
2022/11/07 01:19:14;;;;;;;1.15;0.70;;;11.90;99.90;;;;;;4885705;29;20057;-77
2022/11/07 01:21:42;;;;;;;1.63;0.88;;;11.90;99.90;;;;;;4886083;29;20049;-77
2022/11/07 01:24:10;;;;;;;1.90;0.90;;;11.90;99.90;;;;;;4885321;29;20052;-77
2022/11/07 01:26:37;;;;;;;2.22;0.80;;;12.00;99.90;;;;;;4888796;29;20052;-77
2022/11/07 01:29:05;;;;;;;0.68;0.63;;;12.00;99.90;;;;;;4886065;29;20049;-78
2022/11/07 01:31:32;;;;;;;1.40;0.70;;;12.00;99.90;;;;;;4887541;29;20060;-77
2022/11/07 01:33:59;;;;;;;1.20;0.80;;;12.00;99.90;;;;;;4886178;29;20510;-78
2022/11/07 01:36:26;;;;;;;1.38;0.95;;;12.00;99.90;;;;;;4887823;29;20060;-79
2022/11/07 01:38:53;;;;;;;1.55;0.80;;;12.00;99.90;;;;;;4888850;29;20057;-78
2022/11/07 01:41:24;;;;;;;2.42;0.82;;;12.00;99.90;;;;;;4886666;29;20055;-77
2022/11/07 01:43:52;;;;;;;0.90;0.70;;;12.00;99.90;;;;;;4888198;29;20121;-78
2022/11/07 01:46:23;;;;;;;3.15;0.90;;;12.00;99.90;;;;;;4884964;29;20423;-79
2022/11/07 01:49:10;;;;;;;6.68;1.10;;;12.00;99.90;;;;;;4903259;29;20057;-78
2022/11/07 01:52:15;;;;;;;1.20;0.82;;;12.00;99.90;;;;;;4891600;29;20057;-78
2022/11/07 01:54:45;;;;;;;1.88;0.90;;;12.00;99.90;;;;;;4867734;29;20434;-78
2022/11/07 01:57:18;;;;;;;2.47;0.80;;;12.00;99.90;;;;;;4887024;29;20045;-78
2022/11/07 01:59:45;;;;;;;1.67;0.90;;;12.00;99.90;;;;;;4887580;29;20056;-78
2022/11/07 02:02:12;;;;;;;4.57;0.93;;;11.90;99.90;;;;;;4887742;29;20135;-78
2022/11/07 02:04:39;;;;;;;2.60;0.93;;;11.90;99.90;;;;;;4885655;29;20056;-79
2022/11/07 02:07:18;;;;;;;3.65;0.98;;;11.90;99.90;;;;;;4884186;29;20059;-78
2022/11/07 02:09:45;;;;;;;1.77;0.80;;;11.90;99.90;;;;;;4883252;29;20091;-79
2022/11/07 02:12:13;;;;;;;3.28;0.88;;;11.80;99.90;;;;;;4883177;29;20056;-78
2022/11/07 02:14:42;;;;;;;1.90;0.90;;;11.80;99.90;;;;;;4900214;29;20529;-77
2022/11/07 02:17:12;;;;;;;5.65;0.95;;;11.80;99.90;;;;;;4891855;29;20064;-78
2022/11/07 02:19:42;;;;;;;2.30;1.05;;;11.80;99.90;;;;;;4884116;29;20419;-78
2022/11/07 02:22:41;;;;;;;5.47;1.15;;;11.80;99.90;;;;;;4881975;29;20049;-78
2022/11/07 02:25:11;;;;;;;4.30;1.05;;;11.80;99.90;;;;;;4869033;29;20060;-76
2022/11/07 02:27:40;;;;;;;4.00;1.10;;;11.70;99.90;;;;;;4882968;29;20057;-77
2022/11/07 02:30:16;;;;;;;4.32;1.10;;;11.70;99.90;;;;;;4880951;29;20079;-77
2022/11/07 02:32:43;;;;;;;2.17;0.70;;;11.60;99.90;;;;;;4883678;29;20080;-78
2022/11/07 02:35:40;;;;;;;2.67;1.02;;;11.60;99.90;;;;;;4884824;29;20050;-77
2022/11/07 02:38:31;;;;;;;5.65;1.30;;;11.60;99.90;;;;;;4885094;29;20053;-77
2022/11/07 02:41:05;;;;;;;4.03;0.88;;;11.50;99.90;;;;;;4884179;29;20063;-78
2022/11/07 02:43:33;;;;;;;2.55;1.02;;;11.50;99.90;;;;;;4887678;29;20057;-78
2022/11/07 02:46:05;;;;;;;2.22;0.77;;;11.50;99.90;;;;;;4886666;29;20057;-77
2022/11/07 02:48:40;;;;;;;4.18;0.95;;;11.50;99.90;;;;;;4887396;29;20112;-77
2022/11/07 02:51:06;;;;;;;4.15;0.90;;;11.50;99.90;;;;;;4888672;29;20499;-77
2022/11/07 02:53:33;;;;;;;3.90;1.10;;;11.50;99.90;;;;;;4889848;29;20057;-79
2022/11/07 02:55:59;;;;;;;3.40;1.02;;;11.50;99.90;;;;;;4891241;29;20491;-77
2022/11/07 02:58:26;;;;;;;3.42;0.90;;;11.50;99.90;;;;;;4888561;29;20049;-77
2022/11/07 03:00:53;;;;;;;3.55;0.98;;;11.50;99.90;;;;;;4887539;29;20057;-78
2022/11/07 03:03:20;;;;;;;2.08;0.88;;;11.50;99.90;;;;;;4887182;29;20448;-77
2022/11/07 03:05:46;;;;;;;2.08;0.85;;;11.40;99.90;;;;;;4885286;29;20673;-77
2022/11/07 03:08:13;;;;;;;2.85;0.80;;;11.40;99.90;;;;;;4884545;29;20518;-77
2022/11/07 03:10:40;;;;;;;3.92;1.17;;;11.40;99.90;;;;;;4884744;29;20056;-77
2022/11/07 03:13:06;;;;;;;4.97;0.80;;;11.40;99.90;;;;;;4884229;29;20053;-78
2022/11/07 03:15:33;;;;;;;5.00;1.13;;;11.30;99.90;;;;;;4883934;29;20068;-77
2022/11/07 03:18:00;;;;;;;3.88;1.17;;;11.30;99.90;;;;;;4883116;29;20049;-78
2022/11/07 03:20:26;;;;;;;3.25;0.90;;;11.30;99.90;;;;;;4881163;29;20053;-77
2022/11/07 03:22:53;;;;;;;6.00;1.23;;;11.30;99.90;;;;;;4881676;29;20057;-78
2022/11/07 03:25:20;;;;;;;4.60;1.20;;;11.20;99.90;;;;;;4888769;29;20091;-78
2022/11/07 03:27:48;;;;;;;3.38;1.10;;;11.20;99.90;;;;;;4895657;29;20060;-78
2022/11/07 03:30:15;;;;;;;5.32;1.13;;;11.20;99.90;;;;;;4897522;29;20053;-78
2022/11/07 03:32:42;;;;;;;4.70;1.05;;;11.20;99.90;;;;;;4903607;29;20063;-78
2022/11/07 03:35:09;;;;;;;1.88;1.00;;;11.10;99.90;;;;;;4900722;29;20063;-79
2022/11/07 03:37:36;;;;;;;5.30;1.15;;;11.10;99.90;;;;;;4899308;29;20060;-77
2022/11/07 03:40:03;;;;;;;3.38;0.80;;;11.10;99.90;;;;;;4896385;29;20113;-78
2022/11/07 03:42:30;;;;;;;6.78;1.50;;;11.00;99.90;;;;;;4894692;29;20053;-79
2022/11/07 03:44:56;;;;;;;1.65;0.90;;;11.00;99.90;;;;;;4884369;29;20049;-77
2022/11/07 03:47:23;;;;;;;5.90;1.30;;;11.00;99.90;;;;;;4884516;29;20053;-78
2022/11/07 03:49:50;;;;;;;2.72;0.98;;;11.00;99.90;;;;;;4886791;29;20139;-78
2022/11/07 03:52:16;;;;;;;2.25;0.82;;;10.90;99.90;;;;;;4888456;29;20064;-77
2022/11/07 03:54:43;;;;;;;2.67;1.10;;;10.90;99.90;;;;;;4892152;29;20072;-77
2022/11/07 03:57:10;;;;;;;5.55;1.35;;;11.00;99.90;;;;;;4889393;29;20411;-78
2022/11/07 03:59:36;;;;;;;5.63;1.58;;;10.90;99.90;;;;;;4887934;29;20059;-78
2022/11/07 04:02:03;;;;;;;5.75;1.33;;;10.90;99.90;;;;;;4884749;29;20052;-77
2022/11/07 04:04:30;;;;;;;4.90;0.80;;;10.90;99.90;;;;;;4889703;29;20081;-78
2022/11/07 04:06:56;;;;;;;2.45;0.90;;;10.90;99.90;;;;;;4890405;29;20076;-78
2022/11/07 04:09:23;;;;;;;1.33;0.88;;;11.00;99.90;;;;;;4886019;29;20487;-78
2022/11/07 04:17:21;;;;;;;2.40;1.10;;;11.10;99.90;;;;;;4888056;29;20410;-78
2022/11/07 04:19:50;;;;;;;4.63;1.05;;;11.10;99.90;;;;;;4894794;29;20507;-78
2022/11/07 04:22:17;;;;;;;4.70;0.82;;;11.10;99.90;;;;;;4889674;29;20057;-77
2022/11/07 04:24:44;;;;;;;6.20;0.98;;;11.10;99.90;;;;;;4895603;29;20057;-77
2022/11/07 04:30:17;;;;;;;5.07;1.27;;;11.10;99.90;;;;;;4884273;29;20132;-78
2022/11/07 04:32:45;;;;;;;3.25;1.10;;;11.10;99.90;;;;;;4891872;29;20507;-78
2022/11/07 04:35:13;;;;;;;3.75;1.00;;;11.10;99.90;;;;;;4893896;29;20521;-78
2022/11/07 04:37:40;;;;;;;3.95;1.25;;;11.10;99.90;;;;;;4890053;29;20052;-78
2022/11/07 04:40:09;;;;;;;7.43;1.10;;;11.10;99.90;;;;;;4889693;29;20055;-78
2022/11/07 04:42:36;;;;;;;7.93;1.00;;;11.10;99.90;;;;;;4893578;29;20053;-77
2022/11/07 04:45:03;;;;;;;5.68;0.88;;;11.10;99.90;;;;;;4890452;29;20052;-78
2022/11/07 04:47:30;;;;;;;4.82;1.10;;;11.10;99.90;;;;;;4889617;29;20522;-78
2022/11/07 04:50:03;;;;;;;3.92;1.05;;;11.10;99.90;;;;;;4893241;29;20091;-78
2022/11/07 04:52:30;;;;;;;3.95;1.08;;;11.10;99.90;;;;;;4893365;29;20060;-78
2022/11/07 04:54:56;;;;;;;1.98;0.88;;;11.10;99.90;;;;;;4879222;29;20080;-78
2022/11/07 04:57:23;;;;;;;2.97;1.00;;;11.10;99.90;;;;;;4879825;29;20115;-78
2022/11/07 04:59:50;;;;;;;2.40;1.10;;;11.10;99.90;;;;;;4880308;29;20045;-77
2022/11/07 05:02:17;;;;;;;2.65;0.90;;;11.10;99.90;;;;;;4882446;29;20056;-77
2022/11/07 05:04:43;;;;;;;2.28;1.33;;;11.10;99.90;;;;;;4881979;29;20147;-78
2022/11/07 05:07:10;;;;;;;6.25;0.80;;;11.10;99.90;;;;;;4882579;29;20060;-77
2022/11/07 05:09:37;;;;;;;3.20;1.27;;;11.10;99.90;;;;;;4884102;29;20052;-78
2022/11/07 05:12:04;;;;;;;2.83;0.82;;;11.10;99.90;;;;;;4882034;29;20056;-79
2022/11/07 05:14:31;;;;;;;3.50;1.08;;;11.10;99.90;;;;;;4883806;29;20535;-78
2022/11/07 05:16:58;;;;;;;3.67;0.85;;;11.10;99.90;;;;;;4884673;29;20048;-78
2022/11/07 05:19:24;;;;;;;2.75;1.10;;;11.10;99.90;;;;;;4884301;29;20049;-77
2022/11/07 05:23:10;;;;;;;6.72;1.00;;;11.10;99.90;;;;;;4890229;29;20049;-77
2022/11/07 05:24:38;;;;;;;2.60;1.13;;;11.10;99.90;;;;;;4889790;29;20057;-78
2022/11/07 05:27:05;;;;;;;2.78;1.00;;;11.20;99.90;;;;;;4889169;29;20056;-79
2022/11/07 05:29:32;;;;;;;4.93;1.15;;;11.20;99.90;;;;;;4896264;29;20052;-78
2022/11/07 05:31:59;;;;;;;3.20;1.42;;;11.20;99.90;;;;;;4897340;29;20071;-78
2022/11/07 05:34:26;;;;;;;2.70;0.98;;;11.20;99.90;;;;;;4890967;29;20057;-78
2022/11/07 05:36:52;;;;;;;3.22;1.10;;;11.20;99.90;;;;;;4893192;29;20067;-77
2022/11/07 05:39:19;;;;;;;2.97;0.70;;;11.30;99.90;;;;;;4896947;29;20049;-77
2022/11/07 05:41:46;;;;;;;5.72;1.40;;;11.30;99.90;;;;;;4889548;29;20053;-77
2022/11/07 05:44:13;;;;;;;2.63;0.95;;;11.30;99.90;;;;;;4888197;29;20120;-78
2022/11/07 05:46:39;;;;;;;2.92;0.90;;;11.40;99.90;;;;;;4895612;29;20068;-78
2022/11/07 05:49:06;;;;;;;5.47;1.17;;;11.40;99.90;;;;;;4886860;29;20057;-77
2022/11/07 05:51:32;;;;;;;1.75;0.70;;;11.40;99.90;;;;;;4886660;29;20376;-77
2022/11/07 05:53:59;;;;;;;1.75;0.93;;;11.50;99.90;;;;;;4885669;29;20511;-77
2022/11/07 05:56:26;;;;;;;3.60;1.00;;;11.50;99.90;;;;;;4884847;29;20527;-77
2022/11/07 05:58:52;;;;;;;3.67;1.27;;;11.50;99.90;;;;;;4885184;29;20063;-77
2022/11/07 06:01:19;;;;;;;2.83;0.80;;;11.50;99.90;;;;;;4884046;29;20049;-77
2022/11/07 06:03:46;;;;;;;4.18;1.10;;;11.50;99.90;;;;;;4883448;29;20578;-77
2022/11/07 06:06:12;;;;;;;3.55;1.02;;;11.50;99.90;;;;;;4882529;29;20057;-77
2022/11/07 06:08:39;;;;;;;2.70;1.58;;;11.50;99.90;;;;;;4882455;29;20590;-77
2022/11/07 06:11:06;;;;;;;2.97;1.00;;;11.50;99.90;;;;;;4882605;29;20079;-77
2022/11/07 06:13:32;;;;;;;3.55;1.10;;;11.50;99.90;;;;;;4893839;29;20076;-77
2022/11/07 06:15:59;;;;;;;2.25;0.85;;;11.40;99.90;;;;;;4899152;29;20053;-78
2022/11/07 06:18:26;;;;;;;3.95;1.38;;;11.40;99.90;;;;;;4897952;29;20049;-77
2022/11/07 06:20:52;;;;;;;3.58;1.10;;;11.40;99.90;;;;;;4897203;29;20072;-78
2022/11/07 06:23:19;;;;;;;1.52;0.85;;;11.40;99.90;;;;;;4896838;29;20060;-78
2022/11/07 06:25:46;;;;;;;3.15;1.25;;;11.40;99.90;;;;;;4898017;29;20045;-78
2022/11/07 06:28:14;;;;;;;5.00;1.00;;;11.40;99.90;;;;;;4895355;29;20049;-79
2022/11/07 06:30:41;;;;;;;3.65;0.90;;;11.40;99.90;;;;;;4897584;29;20052;-78
2022/11/07 06:33:11;;;;;;;3.75;0.93;;;11.40;99.90;;;;;;4897119;29;20044;-77
2022/11/07 06:35:39;;;;;;;5.25;1.20;;;11.40;99.90;;;;;;4893490;29;20053;-77
2022/11/07 06:38:11;;;;;;;5.43;1.15;;;11.40;99.90;;;;;;4892907;29;20057;-78
2022/11/07 06:40:40;;;;;;;8.23;1.13;;;11.40;99.90;;;;;;4891925;29;20053;-78
2022/11/07 06:43:09;;;;;;;6.50;1.20;;;11.50;99.90;;;;;;4891721;29;20049;-78
2022/11/07 06:45:37;;;;;;;2.30;1.10;;;11.50;99.90;;;;;;4905303;29;20056;-78
2022/11/07 06:48:04;;;;;;;3.38;1.00;;;11.50;99.90;;;;;;4890761;29;20083;-78
2022/11/07 06:50:31;;;;;;;2.75;1.27;;;11.60;99.90;;;;;;4890096;29;20104;-78
2022/11/07 06:53:05;;;;;;;4.10;1.00;;;11.60;99.90;;;;;;4889323;29;20064;-78
2022/11/07 06:55:34;;;;;;;2.95;0.98;;;11.60;99.90;;;;;;4889300;29;20053;-78
2022/11/07 06:58:01;;;;;;;2.35;0.93;;;11.70;99.90;;;;;;4891694;29;20083;-77
2022/11/07 07:00:28;;;;;;;6.05;1.20;;;11.70;99.90;;;;;;4892209;29;20056;-77
2022/11/07 07:02:55;;;;;;;3.55;0.98;;;11.70;99.90;;;;;;4892717;29;20048;-79
2022/11/07 07:05:24;;;;;;;4.05;0.95;;;11.80;99.90;;;;;;4894008;29;20570;-78
2022/11/07 07:07:53;;;;;;;3.85;1.00;;;11.80;99.90;;;;;;4894043;29;20056;-77
2022/11/07 07:10:20;;;;;;;5.53;1.25;;;11.90;99.90;;;;;;4884888;29;20055;-77
2022/11/07 07:12:47;;;;;;;2.85;1.10;;;11.90;99.90;;;;;;4882500;29;20111;-77
2022/11/07 07:15:14;;;;;;;5.63;1.10;;;12.00;99.90;;;;;;4881348;29;20606;-77
2022/11/07 07:17:40;;;;;;;6.38;1.27;;;12.00;99.90;;;;;;4888071;29;20053;-76
2022/11/07 07:20:08;;;;;;;3.13;0.90;;;12.00;99.90;;;;;;4895329;29;20407;-77
2022/11/07 07:22:34;;;;;;;2.90;0.90;;;12.10;99.90;;;;;;4897438;29;20059;-77
2022/11/07 07:25:01;;;;;;;6.20;1.80;;;12.10;99.90;;;;;;4895610;29;20064;-77
2022/11/07 07:27:27;;;;;;;4.70;0.95;;;12.20;99.90;;;;;;4894709;29;20056;-78
2022/11/07 07:29:54;;;;;;;2.85;1.00;;;12.30;99.90;;;;;;4886904;29;20396;-77
2022/11/07 07:32:23;;;;;;;3.13;1.08;;;12.30;99.90;;;;;;4880723;29;20053;-76
2022/11/07 07:34:51;;;;;;;2.30;0.90;;;12.30;99.90;;;;;;4881155;29;20053;-77
2022/11/07 07:37:18;;;;;;;4.10;0.90;;;12.40;99.90;;;;;;4881751;29;20053;-77
2022/11/07 07:39:44;;;;;;;3.80;1.20;;;12.40;99.90;;;;;;4890329;29;20072;-77
2022/11/07 07:42:11;;;;;;;4.40;1.08;;;12.40;99.90;;;;;;4897860;29;20049;-78
2022/11/07 07:44:38;;;;;;;5.47;1.40;;;12.50;99.90;;;;;;4896858;29;20053;-77
2022/11/07 07:47:04;;;;;;;4.68;0.90;;;12.50;99.90;;;;;;4884129;29;20061;-77
2022/11/07 07:49:36;;;;;;;3.45;1.00;;;12.50;99.90;;;;;;4884232;29;20057;-77
2022/11/07 07:52:03;;;;;;;4.47;1.20;;;12.60;99.90;;;;;;4884856;29;20060;-77
2022/11/07 07:54:30;;;;;;;4.60;0.93;;;12.60;99.90;;;;;;4887225;29;20059;-77
2022/11/07 07:56:57;;;;;;;5.60;1.30;;;12.60;99.90;;;;;;4887428;29;20507;-78
2022/11/07 07:59:23;;;;;;;6.68;0.90;;;12.70;99.90;;;;;;4888096;29;20135;-77
2022/11/07 08:01:50;;;;;;;2.08;0.80;;;12.70;99.90;;;;;;4886390;29;20048;-77
2022/11/07 08:04:22;;;;;;;3.75;1.15;;;12.80;99.90;;;;;;4885027;29;20108;-77
2022/11/07 08:06:49;;;;;;;4.90;0.73;;;12.80;99.90;;;;;;4895247;29;20056;-78
2022/11/07 08:09:16;;;;;;;4.30;1.10;;;12.90;99.90;;;;;;4888924;29;20048;-77
2022/11/07 08:11:42;;;;;;;5.97;1.30;;;12.90;99.90;;;;;;4896160;29;20080;-77
2022/11/07 08:14:10;;;;;;;5.32;1.23;;;13.00;99.90;;;;;;4889206;29;20507;-78
2022/11/07 08:16:37;;;;;;;3.53;0.90;;;13.00;99.90;;;;;;4893823;29;20048;-77
2022/11/07 08:19:04;;;;;;;2.20;0.98;;;13.10;99.90;;;;;;4888456;29;20068;-76
2022/11/07 08:21:30;;;;;;;6.15;2.22;;;13.10;99.90;;;;;;4896266;29;20045;-78
2022/11/07 08:23:57;;;;;;;7.15;1.33;;;13.20;99.90;;;;;;4890723;29;20063;-78
2022/11/07 08:26:24;;;;;;;4.68;1.08;;;13.20;99.90;;;;;;4887036;29;20068;-83
2022/11/07 08:28:53;;;;;;;3.65;1.20;;;13.30;99.90;;;;;;4889895;29;20052;-78
2022/11/07 08:31:20;;;;;;;5.50;0.90;;;13.40;99.90;;;;;;4893087;29;20557;-78
2022/11/07 08:33:47;;;;;;;4.35;2.75;;;13.50;99.90;;;;;;4893897;29;20507;-78
2022/11/07 08:36:14;;;;;;;2.47;1.00;;;13.70;99.90;;;;;;4893597;29;20088;-77
2022/11/07 08:38:40;;;;;;;8.93;1.27;;;13.80;99.90;;;;;;4891979;29;20045;-78
2022/11/07 08:41:07;;;;;;;2.53;0.90;;;13.90;99.90;;;;;;4885981;29;20055;-78
2022/11/07 08:43:34;;;;;;;3.15;1.05;;;13.90;99.90;;;;;;4884107;29;20049;-77
2022/11/07 08:46:00;;;;;;;3.20;0.88;;;14.10;99.90;;;;;;4888843;29;20053;-77
2022/11/07 08:48:27;;;;;;;6.10;1.00;;;14.10;99.90;;;;;;4887844;29;20052;-78
2022/11/07 08:50:55;;;;;;;3.00;1.05;;;14.30;99.90;;;;;;4883186;29;20053;-78
2022/11/07 08:53:24;;;;;;;2.50;0.90;;;14.30;99.90;;;;;;4890835;29;20101;-77
2022/11/07 08:55:51;;;;;;;6.75;1.30;;;14.40;99.90;;;;;;4889559;29;20068;-77
2022/11/07 08:58:18;;;;;;;5.13;0.98;;;14.50;99.90;;;;;;4892935;29;20060;-78
2022/11/07 09:00:45;;;;;;;6.28;1.27;;;14.50;99.90;;;;;;4884768;29;20056;-78
2022/11/07 09:03:12;;;;;;;2.85;1.02;;;14.50;99.90;;;;;;4890227;29;20120;-78
2022/11/07 09:05:59;;;;;;;2.60;0.98;;;14.50;99.90;;;;;;4896090;29;20419;-78
2022/11/07 09:08:26;;;;;;;5.97;1.30;;;14.40;99.90;;;;;;4896044;29;20063;-78
2022/11/07 09:10:52;;;;;;;6.93;1.30;;;14.50;99.90;;;;;;4891297;29;20049;-77
2022/11/07 09:13:19;;;;;;;3.53;1.02;;;14.40;99.90;;;;;;4892822;29;20396;-77
2022/11/07 09:15:47;;;;;;;3.42;0.98;;;14.50;99.90;;;;;;4894420;29;20087;-78
2022/11/07 09:18:18;;;;;;;2.70;0.80;;;14.50;99.90;;;;;;4897775;29;20044;-81
2022/11/07 09:20:45;;;;;;;1.83;0.70;;;14.50;99.90;;;;;;4896085;29;20096;-77
2022/11/07 09:23:11;;;;;;;5.53;1.10;;;14.60;99.90;;;;;;4894735;29;20529;-77
2022/11/07 09:25:39;;;;;;;3.13;0.70;;;14.60;99.90;;;;;;4890532;29;20419;-77
2022/11/07 09:28:05;;;;;;;3.65;1.40;;;14.60;99.90;;;;;;4892039;29;20060;-77
2022/11/07 09:30:32;;;;;;;4.07;1.25;;;14.60;99.90;;;;;;4888236;29;20053;-77
2022/11/07 09:32:59;;;;;;;4.53;1.33;;;14.70;99.90;;;;;;4889643;29;20139;-77
2022/11/07 09:35:26;;;;;;;5.70;0.98;;;14.70;99.90;;;;;;4888313;29;20049;-76
2022/11/07 09:37:53;;;;;;;2.13;1.00;;;14.70;99.90;;;;;;4889799;29;20052;-77
2022/11/07 09:40:50;;;;;;;5.85;1.52;;;14.70;99.90;;;;;;4890821;29;20048;-76
2022/11/07 09:43:29;;;;;;;4.03;1.10;;;14.80;99.90;;;;;;4893678;29;20044;-77
2022/11/07 09:46:31;;;;;;;2.35;0.68;;;14.90;99.90;;;;;;4896128;29;20099;-77
2022/11/07 09:49:07;;;;;;;2.88;0.90;;;15.00;99.90;;;;;;4893216;29;20127;-75
2022/11/07 09:51:46;;;;;;;5.60;0.93;;;15.10;99.90;;;;;;4891703;29;20052;-77
2022/11/07 09:54:18;;;;;;;4.80;1.15;;;15.20;99.90;;;;;;4892334;29;20051;-76
2022/11/07 09:56:45;;;;;;;3.60;0.85;;;15.30;99.90;;;;;;4889216;29;20049;-77
2022/11/07 09:59:37;;;;;;;3.20;0.63;;;15.40;99.90;;;;;;4885391;29;20051;-77
2022/11/07 10:02:13;;;;;;;5.40;1.20;;;15.50;99.90;;;;;;4883862;29;20053;-76
2022/11/07 10:04:41;;;;;;;5.53;1.30;;;15.60;99.90;;;;;;4886133;29;20076;-77
2022/11/07 10:07:38;;;;;;;4.07;1.45;;;15.70;99.90;;;;;;4883359;29;20049;-76
2022/11/07 10:10:21;;;;;;;6.80;1.30;;;15.80;99.90;;;;;;4888577;29;20059;-76
2022/11/07 10:12:58;;;;;;;4.68;1.00;;;15.90;99.90;;;;;;4887554;29;20064;-78
2022/11/07 10:15:53;;;;;;;3.80;0.80;;;15.90;99.90;;;;;;4887359;29;20075;-76
2022/11/07 10:18:43;;;;;;;2.75;0.90;;;16.00;99.90;;;;;;4885459;29;20052;-77
2022/11/07 10:21:22;;;;;;;7.93;1.15;;;16.00;99.90;;;;;;4886686;29;20049;-77
2022/11/07 10:24:45;;;;;;;7.80;1.23;;;16.10;99.90;;;;;;4887829;29;20060;-76
2022/11/07 10:27:12;;;;;;;2.35;0.88;;;16.10;99.90;;;;;;4894965;29;20055;-77
2022/11/07 10:29:59;;;;;;;4.60;1.00;;;16.10;99.90;;;;;;4889341;29;20052;-76
2022/11/07 10:32:46;;;;;;;5.13;1.38;;;16.10;99.90;;;;;;4890144;29;20507;-76
2022/11/07 10:35:29;;;;;;;2.35;0.88;;;16.10;99.90;;;;;;4889861;29;21279;-76
2022/11/07 10:37:59;;;;;;;4.50;1.25;;;16.10;99.90;;;;;;4890911;29;20391;-76
2022/11/07 10:40:37;;;;;;;6.00;1.27;;;16.20;99.90;;;;;;4889109;29;20049;-76
2022/11/07 10:43:11;;;;;;;5.60;1.17;;;16.10;99.90;;;;;;4890431;29;20061;-77
2022/11/07 10:45:38;;;;;;;4.30;1.67;;;16.10;99.90;;;;;;4890412;29;20429;-76
2022/11/07 10:48:05;;;;;;;5.20;1.15;;;16.20;99.90;;;;;;4888912;29;20099;-76
2022/11/07 10:50:32;;;;;;;4.05;1.05;;;16.20;99.90;;;;;;4891686;29;20059;-77
2022/11/07 10:53:08;;;;;;;2.63;1.05;;;16.20;99.90;;;;;;4894953;29;20047;-76
2022/11/07 10:55:44;;;;;;;2.97;1.00;;;16.20;99.90;;;;;;4895196;29;20092;-78
2022/11/07 10:58:22;;;;;;;3.72;1.23;;;16.20;99.90;;;;;;4893958;29;20478;-77
2022/11/07 11:01:04;;;;;;;6.25;0.90;;;16.30;99.90;;;;;;4895683;29;20056;-77
2022/11/07 11:03:37;;;;;;;2.85;0.85;;;16.30;99.90;;;;;;4886755;29;20049;-77
2022/11/07 11:06:17;;;;;;;5.30;1.00;;;16.30;99.90;;;;;;4892316;29;20045;-77
2022/11/07 11:08:49;;;;;;;5.07;1.77;;;16.30;99.90;;;;;;4891566;29;20392;-77
2022/11/07 11:11:31;;;;;;;4.53;1.17;;;16.30;99.90;;;;;;4889280;29;20059;-78
2022/11/07 11:14:13;;;;;;;5.38;1.27;;;16.30;99.90;;;;;;4893303;29;20539;-77
2022/11/07 11:16:41;;;;;;;4.05;1.85;;;16.20;99.90;;;;;;4893051;29;20491;-77
2022/11/07 11:19:47;;;;;;;11.05;1.40;;;16.20;99.90;;;;;;4897199;29;20131;-76
2022/11/07 11:22:17;;;;;;;3.83;1.08;;;16.20;99.90;;;;;;4883120;29;20060;-76
2022/11/07 11:24:44;;;;;;;4.18;1.20;;;16.20;99.90;;;;;;4884373;29;20057;-77
2022/11/07 11:27:24;;;;;;;4.60;1.00;;;16.10;99.90;;;;;;4892236;29;20044;-76
2022/11/07 11:30:05;;;;;;;4.10;1.20;;;16.10;99.90;;;;;;4889935;29;20053;-77
2022/11/07 11:32:42;;;;;;;3.65;1.00;;;16.10;99.90;;;;;;4887588;29;20080;-76
2022/11/07 11:35:29;;;;;;;3.85;0.90;;;16.10;99.90;;;;;;4888902;29;20414;-77
2022/11/07 11:38:03;;;;;;;2.63;1.02;;;16.00;99.90;;;;;;4891781;29;20052;-77
2022/11/07 11:40:37;;;;;;;4.10;1.27;;;16.00;99.90;;;;;;4887149;29;20049;-77
2022/11/07 11:43:25;;;;;;;7.20;1.00;;;16.10;99.90;;;;;;4884745;29;20049;-77
2022/11/07 11:46:11;;;;;;;2.78;1.15;;;16.10;99.90;;;;;;4888389;29;20049;-76
2022/11/07 11:48:52;;;;;;;4.18;1.00;;;16.10;99.90;;;;;;5050108;28;20381;-77
2022/11/07 11:51:39;;;;;;;4.93;1.13;;;16.10;99.90;;;;;;5060463;28;20062;-78
2022/11/07 11:54:11;;;;;;;2.80;0.98;;;16.10;99.90;;;;;;5052924;28;20041;-78
2022/11/07 11:57:00;;;;;;;3.33;1.33;;;16.10;99.90;;;;;;5055249;28;20052;-74
2022/11/07 11:59:54;;;;;;;6.55;1.38;;;16.10;99.90;;;;;;5050553;28;20068;-74
2022/11/07 12:02:44;;;;;;;4.07;0.88;;;16.10;99.90;;;;;;5047827;28;20045;-75
2022/11/07 12:05:29;;;;;;;;;;;16.20;99.90;;;;;;5042915;28;20125;-75
2022/11/07 12:08:02;;;;;;;3.33;1.38;;;16.20;99.90;;;;;;5047883;28;19928;-79
2022/11/07 12:10:46;;;;;;;5.20;0.90;;;16.20;99.90;;;;;;5049606;28;20056;-74
2022/11/07 12:13:34;;;;;;;5.40;1.55;;;16.20;99.90;;;;;;5050866;28;20441;-75
2022/11/07 12:16:04;;;;;;;7.72;1.27;;;16.30;99.90;;;;;;5045944;28;20041;-75
2022/11/07 12:18:46;;;;;;;5.80;1.73;;;16.30;99.90;;;;;;5044831;28;20064;-75
2022/11/07 12:21:33;;;;;;;5.10;1.08;;;16.40;99.90;;;;;;5050080;28;20041;-74
2022/11/07 12:24:17;;;;;;;5.03;1.23;;;16.50;99.90;;;;;;5046807;28;20045;-77
2022/11/07 12:27:15;;;;;;;3.67;1.08;;;16.50;99.90;;;;;;5047228;28;20045;-75
2022/11/07 12:30:19;;;;;;;6.07;1.08;;;16.60;99.90;;;;;;5049291;28;20060;-76
2022/11/07 12:33:35;;;;;;;6.75;1.42;;;16.70;99.90;;;;;;5048116;28;20056;-76
2022/11/07 12:36:16;;;;;;;5.90;1.10;;;16.70;99.90;;;;;;5060036;28;20059;-75
2022/11/07 12:39:30;;;;;;;5.68;1.35;;;16.80;99.90;;;;;;5038140;28;20045;-77
2022/11/07 12:42:10;;;;;;;4.25;1.00;;;16.80;99.90;;;;;;5033275;28;20079;-77
2022/11/07 12:44:52;;;;;;;1.65;0.90;;;16.90;99.90;;;;;;5044815;28;20059;-77
2022/11/07 12:47:34;;;;;;;2.83;0.88;;;16.90;99.90;;;;;;5049436;28;20052;-77
2022/11/07 12:50:07;;;;;;;5.10;0.82;;;17.00;99.90;;;;;;5043761;28;22977;-77
2022/11/07 12:52:53;;;;;;;3.58;0.85;;;17.00;99.90;;;;;;5044946;28;20080;-77
2022/11/07 12:55:47;;;;;;;2.97;1.00;;;17.00;99.90;;;;;;5050590;28;20052;-77
2022/11/07 12:58:38;;;;;;;5.35;0.85;;;17.00;99.90;;;;;;5041954;28;20046;-76
2022/11/07 13:01:05;;;;;;;6.45;1.08;;;16.90;99.90;;;;;;5030642;28;20041;-77
2022/11/07 13:03:34;;;;;;;3.15;0.80;;;16.90;99.90;;;;;;5030465;28;20564;-77
2022/11/07 13:06:14;;;;;;;7.05;3.75;;;16.90;99.90;;;;;;5034767;28;20077;-75
2022/11/07 13:08:59;;;;;;;2.92;1.42;;;16.80;99.90;;;;;;5037135;28;20140;-77
2022/11/07 13:11:41;;;;;;;3.95;0.90;;;16.80;99.90;;;;;;5035028;28;20037;-77
2022/11/07 13:14:40;;;;;;;2.17;0.60;;;16.70;99.90;;;;;;5023608;28;20532;-76
2022/11/07 13:17:06;;;;;;;6.32;1.00;;;16.70;99.90;;;;;;5031295;28;20053;-76
2022/11/07 13:19:35;;;;;;;5.75;1.00;;;16.70;99.90;;;;;;5030864;28;20041;-77
2022/11/07 13:22:05;;;;;;;3.05;0.93;;;16.70;99.90;;;;;;5031179;28;20053;-76